Bushy Park, Australia
Current Conditions -  °F | °C
As of 9:30 AM on Tuesday 27 Jan 2015 (Local Time) from YMHB Reporting Station
Few Clouds Few Clouds  
Wind Chill: 59°   Ceiling: Unl
Heat Index: 59°   Visibility: 6mi
Dew Point: 43°   Wind: 6mph
Humidity: 55%   Direction: 290°WNW
Pressure: 30.06"   Gusts: NA
Location:  42.7°S, 146.88°E
Report Text: YMHB 262230Z 29005KT 260V320 9999 FEW036 15/06 Q1018
Loading
Personal Weather Stations






























Interactive Weather Map New forecast layout! Learn more

10-Day Weather Forecast

Advertisements
Track Severe Weather on mobile